Time;durP1;ratioP1;P1;durP2;ratioP2;P2;SDS_P1;SDS_P2;PMS_P1;PMS_P2;Temp;Humidity;BMP_temperature;BMP_pressure;BME280_temperature;BME280_humidity;BME280_pressure;Samples;Min_cycle;Max_cycle;Signal;HPM_P1;HPM_P2
2023/03/27 00:01:10;;;;;;;11.25;6.40;;;10.50;99.90;;;;;;5101047;27;20422;-74
2023/03/27 00:03:37;;;;;;;10.45;6.78;;;10.50;99.90;;;;;;5070719;28;20423;-74
2023/03/27 00:06:15;;;;;;;12.10;6.35;;;10.40;99.90;;;;;;5052160;28;20410;-74
2023/03/27 00:08:49;;;;;;;9.95;6.18;;;10.30;99.90;;;;;;5069534;28;20416;-74
2023/03/27 00:11:17;;;;;;;10.60;6.28;;;10.30;99.90;;;;;;5074855;28;20448;-74
2023/03/27 00:13:43;;;;;;;10.05;6.43;;;10.30;99.90;;;;;;5075344;28;20413;-74
2023/03/27 00:16:10;;;;;;;10.38;6.40;;;10.30;99.90;;;;;;5072029;28;20419;-74
2023/03/27 00:18:37;;;;;;;11.50;6.50;;;10.30;99.90;;;;;;5074188;28;20498;-74
2023/03/27 00:21:05;;;;;;;10.25;6.57;;;10.30;99.90;;;;;;5066735;28;20419;-74
2023/03/27 00:23:31;;;;;;;12.88;7.05;;;10.40;99.90;;;;;;5081788;28;20409;-74
2023/03/27 00:25:59;;;;;;;11.55;6.80;;;10.40;99.90;;;;;;5067819;28;20421;-74
2023/03/27 00:28:28;;;;;;;10.38;6.78;;;10.50;99.90;;;;;;5067439;28;21101;-74
2023/03/27 00:30:56;;;;;;;11.52;7.25;;;10.50;99.90;;;;;;5068571;28;20425;-74
2023/03/27 00:33:24;;;;;;;10.20;7.25;;;10.60;99.90;;;;;;5074009;28;20402;-74
2023/03/27 00:35:51;;;;;;;12.20;6.93;;;10.60;99.90;;;;;;5058528;28;20407;-74
2023/03/27 00:38:21;;;;;;;11.90;7.22;;;10.60;99.90;;;;;;5052458;28;20444;-74
2023/03/27 00:40:49;;;;;;;8.80;6.85;;;10.60;99.90;;;;;;5077906;28;20857;-74
2023/03/27 00:43:35;;;;;;;10.88;7.00;;;10.70;99.90;;;;;;5079453;28;21127;-74
2023/03/27 00:46:20;;;;;;;14.40;7.37;;;10.70;99.90;;;;;;5078519;28;20445;-74
2023/03/27 00:48:50;;;;;;;11.33;7.67;;;10.70;99.90;;;;;;5066427;28;20447;-74
2023/03/27 00:51:21;;;;;;;12.82;7.68;;;10.70;99.90;;;;;;5101051;28;20498;-74
2023/03/27 00:53:48;;;;;;;11.27;7.28;;;10.60;99.90;;;;;;5062421;28;20414;-73
2023/03/27 00:56:15;;;;;;;11.20;6.95;;;10.60;99.90;;;;;;5064261;28;20865;-74
2023/03/27 00:58:58;;;;;;;10.50;7.00;;;10.60;99.90;;;;;;5072874;28;20416;-74
2023/03/27 01:01:28;;;;;;;10.32;7.20;;;10.60;99.90;;;;;;5071339;28;20537;-74
2023/03/27 01:03:59;;;;;;;11.32;6.85;;;10.60;99.90;;;;;;5083385;28;20438;-74
2023/03/27 01:06:27;;;;;;;10.35;6.95;;;10.60;99.90;;;;;;5059519;28;20827;-74
2023/03/27 01:08:53;;;;;;;13.25;7.78;;;10.60;99.90;;;;;;5067173;28;21034;-74
2023/03/27 01:11:35;;;;;;;11.90;7.55;;;10.50;99.90;;;;;;5070045;28;20414;-74
2023/03/27 01:14:12;;;;;;;12.10;7.30;;;10.60;99.90;;;;;;5073024;28;20480;-74
2023/03/27 01:17:19;;;;;;;11.27;7.10;;;10.50;99.90;;;;;;5073232;28;20413;-74
2023/03/27 01:20:35;;;;;;;10.48;7.18;;;10.50;99.90;;;;;;5075132;28;20472;-74
2023/03/27 01:23:33;;;;;;;11.73;7.13;;;10.40;99.90;;;;;;5073465;28;20422;-74
2023/03/27 01:26:39;;;;;;;11.38;7.15;;;10.50;99.90;;;;;;5072531;28;20506;-74
2023/03/27 01:29:30;;;;;;;12.27;7.53;;;10.50;99.90;;;;;;5066549;28;20411;-74
2023/03/27 01:32:32;;;;;;;10.93;7.43;;;10.60;99.90;;;;;;5070260;28;20417;-74
2023/03/27 01:35:25;;;;;;;11.97;7.40;;;10.60;99.90;;;;;;5058445;28;20495;-74
2023/03/27 01:38:11;;;;;;;11.97;7.87;;;10.70;99.90;;;;;;5068631;28;20445;-74
2023/03/27 01:40:51;;;;;;;13.73;8.05;;;10.80;99.90;;;;;;5067811;28;20425;-73
2023/03/27 01:43:54;;;;;;;11.68;7.70;;;10.90;99.90;;;;;;5083199;28;20469;-74
2023/03/27 01:46:40;;;;;;;12.85;7.63;;;10.90;99.90;;;;;;5093874;28;20866;-74
2023/03/27 01:49:29;;;;;;;13.50;8.52;;;10.90;99.90;;;;;;5064240;28;20419;-74
2023/03/27 01:52:03;;;;;;;14.48;7.80;;;10.90;99.90;;;;;;5069047;28;20417;-74
2023/03/27 01:54:40;;;;;;;10.90;7.28;;;10.80;99.90;;;;;;5065085;28;20847;-74
2023/03/27 01:57:16;;;;;;;13.63;7.90;;;10.80;99.90;;;;;;5065370;28;20403;-74
2023/03/27 01:59:50;;;;;;;12.20;7.63;;;10.80;99.90;;;;;;5070321;28;21135;-74
2023/03/27 02:02:25;;;;;;;13.10;7.85;;;10.80;99.90;;;;;;5067204;28;20421;-73
2023/03/27 02:05:03;;;;;;;11.43;7.35;;;10.80;99.90;;;;;;5067780;28;20430;-74
2023/03/27 02:07:39;;;;;;;14.00;7.53;;;10.70;99.90;;;;;;5069214;28;20532;-74
2023/03/27 02:10:16;;;;;;;12.85;7.57;;;10.70;99.90;;;;;;5098458;27;20421;-73
2023/03/27 02:12:57;;;;;;;11.48;7.10;;;10.60;99.90;;;;;;5076706;28;20463;-73
2023/03/27 02:15:32;;;;;;;13.60;7.63;;;10.60;99.90;;;;;;5070652;28;20468;-73
2023/03/27 02:18:08;;;;;;;13.95;7.25;;;10.60;99.90;;;;;;5068468;28;20464;-74
2023/03/27 02:20:38;;;;;;;13.13;7.22;;;10.60;99.90;;;;;;5099427;27;20906;-74
2023/03/27 02:23:06;;;;;;;12.05;7.22;;;10.50;99.90;;;;;;5089483;28;20906;-75
2023/03/27 02:25:39;;;;;;;12.55;7.30;;;10.40;99.90;;;;;;5074261;28;20508;-74
2023/03/27 02:28:35;;;;;;;12.30;7.45;;;10.30;99.90;;;;;;5072822;28;20505;-74
2023/03/27 02:31:42;;;;;;;12.40;7.20;;;10.40;99.90;;;;;;5070421;28;20415;-74
2023/03/27 02:34:33;;;;;;;15.18;7.78;;;10.40;99.90;;;;;;5068049;28;20952;-74
2023/03/27 02:37:29;;;;;;;12.10;8.00;;;10.40;99.90;;;;;;5075432;28;20438;-74
2023/03/27 02:40:09;;;;;;;12.20;7.68;;;10.40;99.90;;;;;;5052353;28;20544;-74
2023/03/27 02:43:06;;;;;;;14.23;7.45;;;10.40;99.90;;;;;;5074414;28;20416;-74
2023/03/27 02:46:19;;;;;;;13.57;7.32;;;10.40;99.90;;;;;;5070641;28;21103;-74
2023/03/27 02:48:56;;;;;;;12.50;7.57;;;10.40;99.90;;;;;;5054282;28;20413;-74
2023/03/27 02:51:30;;;;;;;13.57;7.23;;;10.40;99.90;;;;;;5070766;28;20418;-74
2023/03/27 02:54:08;;;;;;;10.07;6.70;;;10.30;99.90;;;;;;5071769;28;20913;-74
2023/03/27 02:56:48;;;;;;;14.55;7.38;;;10.30;99.90;;;;;;5075201;28;20454;-74
2023/03/27 02:59:34;;;;;;;10.23;7.20;;;10.30;99.90;;;;;;5070895;28;20417;-74
2023/03/27 03:02:09;;;;;;;13.93;7.60;;;10.30;99.90;;;;;;5066021;28;20453;-74
2023/03/27 03:05:00;;;;;;;16.67;7.40;;;10.40;99.90;;;;;;5071730;28;20457;-74
2023/03/27 03:07:27;;;;;;;12.32;7.40;;;10.40;99.90;;;;;;5071682;28;20812;-74
2023/03/27 03:09:53;;;;;;;13.18;7.75;;;10.50;99.90;;;;;;5073960;28;20992;-74
2023/03/27 03:12:20;;;;;;;12.50;7.55;;;10.50;99.90;;;;;;5101566;27;20426;-73
2023/03/27 03:14:47;;;;;;;13.27;7.70;;;10.50;99.90;;;;;;5068000;28;20936;-73
2023/03/27 03:17:15;;;;;;;12.63;7.30;;;10.60;99.90;;;;;;5068719;28;20424;-74
2023/03/27 03:19:41;;;;;;;14.32;7.57;;;10.60;99.90;;;;;;5071027;28;20408;-73
2023/03/27 03:22:08;;;;;;;12.18;7.47;;;10.60;99.90;;;;;;5071352;28;21312;-73
2023/03/27 03:24:34;;;;;;;13.70;7.30;;;10.60;99.90;;;;;;5075568;28;20489;-74
2023/03/27 03:27:03;;;;;;;13.48;7.20;;;10.60;99.90;;;;;;5064971;28;20926;-74
2023/03/27 03:29:34;;;;;;;16.83;7.82;;;10.60;99.90;;;;;;5067020;28;20413;-74
2023/03/27 03:32:01;;;;;;;13.88;6.90;;;10.60;99.90;;;;;;5087287;28;20417;-74
2023/03/27 03:34:29;;;;;;;13.35;7.60;;;10.60;99.90;;;;;;5057993;28;20440;-73
2023/03/27 03:36:55;;;;;;;12.87;7.37;;;10.60;99.90;;;;;;5070584;28;21558;-73
2023/03/27 03:39:22;;;;;;;12.68;7.20;;;10.60;99.90;;;;;;5068309;28;20412;-73
2023/03/27 03:41:49;;;;;;;12.52;7.28;;;10.70;99.90;;;;;;5069933;28;20760;-74
2023/03/27 03:44:15;;;;;;;12.02;6.75;;;10.70;99.90;;;;;;5077250;28;20410;-74
2023/03/27 03:46:41;;;;;;;13.93;7.45;;;10.70;99.90;;;;;;5067591;28;21327;-74
2023/03/27 03:49:08;;;;;;;13.27;7.35;;;10.70;99.90;;;;;;5068568;28;20501;-74
2023/03/27 03:51:35;;;;;;;12.52;7.40;;;10.70;99.90;;;;;;5069658;28;20475;-73
2023/03/27 03:54:07;;;;;;;14.73;7.25;;;10.70;99.90;;;;;;5073531;28;20924;-74
2023/03/27 03:56:36;;;;;;;11.40;7.20;;;10.70;99.90;;;;;;5069005;28;20502;-73
2023/03/27 03:59:02;;;;;;;14.85;7.18;;;10.80;99.90;;;;;;5067124;28;21959;-73
2023/03/27 04:01:28;;;;;;;11.67;6.50;;;10.80;99.90;;;;;;5069074;28;20977;-73
2023/03/27 04:03:55;;;;;;;13.38;7.25;;;10.80;99.90;;;;;;5061473;28;20409;-73
2023/03/27 04:06:24;;;;;;;11.82;7.13;;;10.80;99.90;;;;;;5068710;28;20404;-74
2023/03/27 04:08:51;;;;;;;15.48;6.97;;;10.90;99.90;;;;;;5070303;28;20724;-73
2023/03/27 04:11:18;;;;;;;14.77;7.10;;;10.90;99.90;;;;;;5071664;28;20425;-73
2023/03/27 04:13:44;;;;;;;13.32;6.63;;;11.00;99.90;;;;;;5064915;28;20426;-73
2023/03/27 04:16:11;;;;;;;13.77;7.20;;;10.90;99.90;;;;;;5071818;28;20494;-73
2023/03/27 04:18:39;;;;;;;11.85;6.70;;;11.00;99.90;;;;;;5053131;28;20934;-73
2023/03/27 04:21:14;;;;;;;12.13;6.93;;;11.00;99.90;;;;;;5081397;28;20471;-74
2023/03/27 04:23:41;;;;;;;13.40;6.70;;;11.00;99.90;;;;;;5055189;28;20419;-73
2023/03/27 04:26:10;;;;;;;12.90;6.32;;;11.00;99.90;;;;;;5071802;28;20415;-74
2023/03/27 04:28:38;;;;;;;13.80;6.78;;;11.00;99.90;;;;;;5067728;28;20419;-73
2023/03/27 04:31:09;;;;;;;11.25;6.30;;;11.00;99.90;;;;;;5050393;28;20419;-73
2023/03/27 04:33:45;;;;;;;9.85;6.53;;;11.00;99.90;;;;;;5099004;27;20412;-73
2023/03/27 04:36:16;;;;;;;11.23;6.63;;;11.00;99.90;;;;;;5095341;28;21257;-73
2023/03/27 04:38:42;;;;;;;13.40;6.60;;;11.00;99.90;;;;;;5045802;28;20411;-74
2023/03/27 04:41:09;;;;;;;10.40;6.60;;;11.10;99.90;;;;;;5069031;28;20402;-74
2023/03/27 04:43:38;;;;;;;10.02;6.32;;;11.00;99.90;;;;;;5067672;28;20520;-74
2023/03/27 04:46:06;;;;;;;12.45;6.22;;;11.10;99.90;;;;;;5067386;28;20925;-74
2023/03/27 04:48:36;;;;;;;10.88;6.15;;;11.10;99.90;;;;;;5070649;28;20536;-74
2023/03/27 04:51:05;;;;;;;12.32;6.40;;;11.20;99.90;;;;;;5053338;28;20413;-73
2023/03/27 04:53:34;;;;;;;10.35;5.95;;;11.20;99.90;;;;;;5065796;28;20426;-74
2023/03/27 04:56:01;;;;;;;11.50;6.53;;;11.20;99.90;;;;;;5068083;28;20968;-74
2023/03/27 04:58:27;;;;;;;10.90;6.07;;;11.20;99.90;;;;;;5051846;28;20934;-74
2023/03/27 05:00:54;;;;;;;11.52;6.20;;;11.30;99.90;;;;;;5070575;28;20448;-74
2023/03/27 05:03:22;;;;;;;11.48;6.50;;;11.30;99.90;;;;;;5068709;28;20427;-74
2023/03/27 05:05:52;;;;;;;14.70;6.50;;;11.40;99.90;;;;;;5068754;28;20409;-74
2023/03/27 05:08:19;;;;;;;10.73;6.30;;;11.40;99.90;;;;;;5068897;28;20422;-74
2023/03/27 05:10:45;;;;;;;11.02;6.50;;;11.50;99.90;;;;;;5072119;28;20410;-74
2023/03/27 05:13:12;;;;;;;13.97;6.90;;;11.60;99.90;;;;;;5071723;28;20405;-74
2023/03/27 05:15:42;;;;;;;10.15;6.88;;;11.60;99.90;;;;;;5065657;28;20473;-73
2023/03/27 05:18:08;;;;;;;11.55;7.25;;;11.80;99.90;;;;;;5066153;28;20414;-73
2023/03/27 05:20:35;;;;;;;10.05;7.13;;;11.80;99.90;;;;;;5070255;28;20916;-74
2023/03/27 05:23:01;;;;;;;15.25;7.68;;;11.90;99.90;;;;;;5070273;28;20795;-74
2023/03/27 05:25:30;;;;;;;13.95;7.65;;;12.00;99.90;;;;;;5072805;28;20417;-74
2023/03/27 05:27:57;;;;;;;11.25;6.93;;;12.20;99.90;;;;;;5074025;28;20415;-74
2023/03/27 05:30:26;;;;;;;15.05;7.63;;;12.20;99.90;;;;;;5102136;28;20418;-74
2023/03/27 05:32:53;;;;;;;13.90;7.45;;;12.30;99.90;;;;;;5069415;28;20416;-74
2023/03/27 05:35:22;;;;;;;13.73;7.33;;;12.30;99.90;;;;;;5069407;28;20438;-74
2023/03/27 05:37:52;;;;;;;15.43;8.07;;;12.40;99.90;;;;;;5070399;28;21103;-74
2023/03/27 05:40:22;;;;;;;14.30;8.23;;;12.50;99.90;;;;;;5068035;28;20463;-74
2023/03/27 05:42:50;;;;;;;13.68;7.90;;;12.60;99.90;;;;;;5065968;28;20419;-75
2023/03/27 05:45:17;;;;;;;11.70;8.10;;;12.60;99.90;;;;;;5072579;28;20436;-74
2023/03/27 05:47:53;;;;;;;11.45;7.88;;;12.60;99.90;;;;;;5069842;28;21003;-74
2023/03/27 05:50:22;;;;;;;12.05;8.02;;;12.60;99.90;;;;;;5070114;28;20431;-74
2023/03/27 05:53:03;;;;;;;12.40;8.27;;;12.70;99.90;;;;;;5070205;28;20460;-74
2023/03/27 05:55:30;;;;;;;16.05;9.27;;;12.80;99.90;;;;;;5060256;28;20427;-74
2023/03/27 05:57:57;;;;;;;17.60;9.95;;;12.90;99.90;;;;;;5072313;28;20421;-74
2023/03/27 06:00:26;;;;;;;15.23;9.82;;;12.90;99.90;;;;;;5076972;28;20460;-74
2023/03/27 06:03:00;;;;;;;13.20;9.48;;;12.90;99.90;;;;;;5070345;28;21186;-74
2023/03/27 06:05:28;;;;;;;13.52;10.18;;;12.90;99.90;;;;;;5073029;28;20426;-74
2023/03/27 06:07:58;;;;;;;11.75;9.63;;;12.90;99.90;;;;;;5101644;27;20411;-74
2023/03/27 06:10:27;;;;;;;15.93;10.82;;;12.90;99.90;;;;;;5071082;28;20445;-74
2023/03/27 06:13:07;;;;;;;15.05;10.73;;;13.00;99.90;;;;;;5069805;28;20472;-74
2023/03/27 06:15:37;;;;;;;16.15;10.52;;;13.00;99.90;;;;;;5078630;28;20420;-75
2023/03/27 06:18:04;;;;;;;17.13;10.80;;;13.00;99.90;;;;;;5074009;28;20458;-74
2023/03/27 06:20:30;;;;;;;15.88;10.98;;;13.00;99.90;;;;;;5076234;28;20916;-74
2023/03/27 06:22:58;;;;;;;15.27;10.97;;;13.00;99.90;;;;;;5072214;28;20409;-74
2023/03/27 06:25:27;;;;;;;13.48;11.02;;;13.10;99.90;;;;;;5088304;27;20417;-74
2023/03/27 06:27:53;;;;;;;16.23;11.35;;;13.10;99.90;;;;;;5074700;28;20418;-74
2023/03/27 06:30:23;;;;;;;18.30;12.10;;;13.20;99.90;;;;;;5070434;28;20510;-74
2023/03/27 06:32:59;;;;;;;15.75;11.40;;;13.20;99.90;;;;;;5066225;28;21006;-74
2023/03/27 06:35:29;;;;;;;16.02;11.27;;;13.20;99.90;;;;;;5071536;28;20908;-74
2023/03/27 06:37:57;;;;;;;18.65;11.60;;;13.30;99.90;;;;;;5074221;28;20416;-74
2023/03/27 06:40:27;;;;;;;17.02;12.00;;;13.30;99.90;;;;;;5069061;28;20428;-74
2023/03/27 06:43:02;;;;;;;16.85;12.32;;;13.40;99.90;;;;;;5099626;27;20419;-74
2023/03/27 06:45:42;;;;;;;14.20;11.17;;;13.40;99.90;;;;;;5075851;28;20569;-74
2023/03/27 06:48:09;;;;;;;14.88;12.10;;;13.40;99.90;;;;;;5074761;28;20510;-74
2023/03/27 06:50:37;;;;;;;16.83;11.88;;;13.50;99.90;;;;;;5071460;28;20870;-74
2023/03/27 06:53:05;;;;;;;15.43;11.70;;;13.70;99.90;;;;;;5069669;28;20430;-74
2023/03/27 06:55:33;;;;;;;16.40;11.65;;;13.80;99.90;;;;;;5070330;28;20424;-74
2023/03/27 06:58:02;;;;;;;15.53;10.57;;;13.80;99.90;;;;;;5067779;28;20954;-74
2023/03/27 07:00:34;;;;;;;13.38;10.40;;;13.90;99.90;;;;;;5074082;28;20415;-74
2023/03/27 07:03:03;;;;;;;14.18;11.25;;;14.10;99.90;;;;;;5074646;28;20411;-74
2023/03/27 07:05:35;;;;;;;19.02;11.68;;;14.10;99.90;;;;;;5073836;28;20419;-74
2023/03/27 07:08:03;;;;;;;16.25;10.65;;;14.00;99.90;;;;;;5051315;28;20417;-74
2023/03/27 07:10:30;;;;;;;14.15;10.13;;;14.00;99.90;;;;;;5074316;28;20434;-74
2023/03/27 07:12:56;;;;;;;11.93;9.50;;;13.80;99.90;;;;;;5071184;28;20430;-74
2023/03/27 07:15:24;;;;;;;13.18;9.88;;;13.60;99.90;;;;;;5077502;28;20754;-74
2023/03/27 07:17:59;;;;;;;12.23;9.40;;;13.60;99.90;;;;;;5085267;28;20496;-74
2023/03/27 07:20:28;;;;;;;14.10;10.02;;;13.60;99.90;;;;;;5067427;28;20453;-73
2023/03/27 07:22:57;;;;;;;13.55;10.43;;;13.60;99.90;;;;;;5068544;28;20556;-74
2023/03/27 07:25:40;;;;;;;15.20;10.73;;;13.60;99.90;;;;;;5066386;28;20542;-74
2023/03/27 07:28:15;;;;;;;16.17;10.90;;;13.80;99.90;;;;;;5066453;28;20500;-74
2023/03/27 07:30:42;;;;;;;14.43;11.00;;;13.90;99.90;;;;;;5094192;27;20420;-74
2023/03/27 07:33:09;;;;;;;12.77;10.77;;;14.00;99.90;;;;;;5068122;28;21039;-74
2023/03/27 07:35:45;;;;;;;16.98;11.88;;;13.90;99.90;;;;;;5070315;28;20443;-73
2023/03/27 07:38:13;;;;;;;17.60;11.43;;;13.90;99.90;;;;;;5062825;28;20524;-74
2023/03/27 07:40:41;;;;;;;15.23;11.25;;;14.10;99.90;;;;;;5068648;28;20419;-74
2023/03/27 07:43:07;;;;;;;16.77;11.18;;;14.20;99.90;;;;;;5071817;28;20406;-74
2023/03/27 07:45:35;;;;;;;16.67;10.70;;;14.60;99.90;;;;;;5067248;28;20923;-74
2023/03/27 07:48:13;;;;;;;17.17;10.60;;;15.00;99.90;;;;;;5071584;28;20443;-74
2023/03/27 07:50:39;;;;;;;14.57;10.65;;;15.00;99.90;;;;;;5053518;28;21101;-74
2023/03/27 07:53:06;;;;;;;16.77;11.07;;;14.90;99.90;;;;;;5070266;28;20420;-74
2023/03/27 07:55:36;;;;;;;14.57;10.90;;;15.10;99.90;;;;;;5075693;28;20432;-74
2023/03/27 07:58:02;;;;;;;16.45;11.27;;;15.30;99.90;;;;;;5096099;27;20411;-74
2023/03/27 08:00:31;;;;;;;14.73;10.73;;;15.20;99.90;;;;;;5077240;28;21292;-74
2023/03/27 08:03:09;;;;;;;15.68;10.13;;;15.20;99.90;;;;;;5070525;28;20433;-74
2023/03/27 08:05:37;;;;;;;14.25;10.18;;;15.10;99.90;;;;;;5085359;28;20411;-74
2023/03/27 08:08:03;;;;;;;13.10;9.75;;;15.00;99.90;;;;;;5068241;28;20420;-74
2023/03/27 08:10:30;;;;;;;14.20;9.53;;;15.20;99.90;;;;;;5069992;28;20492;-74
2023/03/27 08:12:58;;;;;;;17.48;10.07;;;15.20;99.90;;;;;;5069596;28;20464;-74
2023/03/27 08:15:24;;;;;;;13.25;9.05;;;15.30;99.90;;;;;;5073331;28;20500;-74
2023/03/27 08:17:53;;;;;;;13.85;9.52;;;15.20;99.90;;;;;;5053877;28;20404;-74
2023/03/27 08:20:22;;;;;;;15.00;9.52;;;15.30;99.90;;;;;;5070539;28;22581;-74
2023/03/27 08:22:51;;;;;;;15.85;10.07;;;15.30;99.90;;;;;;5067909;28;20436;-74
2023/03/27 08:25:18;;;;;;;15.63;10.02;;;15.30;99.90;;;;;;5080875;28;20419;-74
2023/03/27 08:27:45;;;;;;;16.88;10.70;;;15.30;99.90;;;;;;5067103;28;20842;-74
2023/03/27 08:30:13;;;;;;;14.50;10.10;;;15.20;99.90;;;;;;5087376;28;20425;-74
2023/03/27 08:32:42;;;;;;;15.75;10.15;;;15.30;99.90;;;;;;5067370;28;20407;-74
2023/03/27 08:35:09;;;;;;;16.80;10.60;;;15.30;99.90;;;;;;5066416;28;21070;-73
2023/03/27 08:37:36;;;;;;;16.45;10.13;;;15.30;99.90;;;;;;5074116;28;20405;-74
2023/03/27 08:40:07;;;;;;;15.20;9.73;;;15.40;99.90;;;;;;5083621;28;20444;-74
2023/03/27 08:42:41;;;;;;;13.32;9.48;;;15.60;99.90;;;;;;5065942;28;20458;-74
2023/03/27 08:45:43;;;;;;;16.50;10.77;;;15.70;99.90;;;;;;5063285;28;20928;-74
2023/03/27 08:48:59;;;;;;;12.75;10.38;;;15.80;99.90;;;;;;5070100;28;20412;-74
2023/03/27 08:51:43;;;;;;;13.15;10.55;;;15.80;99.90;;;;;;5063073;28;20412;-74
2023/03/27 08:54:24;;;;;;;12.60;10.13;;;15.80;99.90;;;;;;5067966;28;20449;-74
2023/03/27 08:56:51;;;;;;;16.95;10.80;;;15.90;99.90;;;;;;5070669;28;20940;-74
2023/03/27 08:59:35;;;;;;;12.73;10.00;;;16.10;99.90;;;;;;5070709;28;20903;-74
2023/03/27 09:02:14;;;;;;;15.10;10.18;;;16.00;99.90;;;;;;5092867;28;20402;-74
2023/03/27 09:05:05;;;;;;;15.38;10.05;;;15.90;99.90;;;;;;5070362;28;20425;-75
2023/03/27 09:08:09;;;;;;;14.75;9.85;;;15.90;99.90;;;;;;5070872;28;20500;-74
2023/03/27 09:10:50;;;;;;;15.63;9.47;;;16.10;99.90;;;;;;5070737;28;20421;-74
2023/03/27 09:13:32;;;;;;;14.38;9.32;;;16.30;99.90;;;;;;5050423;28;20998;-74
2023/03/27 09:16:20;;;;;;;15.93;9.40;;;16.40;99.90;;;;;;5068234;28;21233;-74
2023/03/27 09:19:05;;;;;;;15.20;9.45;;;16.40;99.90;;;;;;5102194;27;20449;-74
2023/03/27 09:21:56;;;;;;;12.82;9.02;;;16.60;99.90;;;;;;5071577;28;20447;-74
2023/03/27 09:24:35;;;;;;;14.45;9.32;;;16.70;99.90;;;;;;5089721;28;20409;-75
2023/03/27 09:27:22;;;;;;;17.20;9.20;;;16.60;99.90;;;;;;5083112;28;20423;-75
2023/03/27 09:30:10;;;;;;;15.37;8.17;;;16.50;99.90;;;;;;5070413;28;20420;-75
2023/03/27 09:32:38;;;;;;;16.05;7.90;;;16.60;99.90;;;;;;5053787;28;20443;-74
2023/03/27 09:35:04;;;;;;;18.88;8.60;;;16.80;99.90;;;;;;5070868;28;20918;-74
2023/03/27 09:37:31;;;;;;;15.07;8.40;;;16.90;99.90;;;;;;5067876;28;20769;-74
2023/03/27 09:40:00;;;;;;;16.38;8.00;;;17.00;99.90;;;;;;5072225;28;20833;-74
2023/03/27 09:42:38;;;;;;;13.60;8.30;;;17.20;99.90;;;;;;5071456;28;20950;-74
2023/03/27 09:45:11;;;;;;;15.73;8.15;;;17.40;99.90;;;;;;5068655;28;20415;-74
2023/03/27 09:47:50;;;;;;;14.88;8.20;;;17.40;99.90;;;;;;5069565;28;21499;-74
2023/03/27 09:50:40;;;;;;;15.30;7.90;;;17.50;99.90;;;;;;5049990;28;20435;-75
2023/03/27 09:53:16;;;;;;;15.40;7.63;;;17.70;99.90;;;;;;5069411;28;20738;-74
2023/03/27 09:55:51;;;;;;;15.18;7.20;;;18.00;99.90;;;;;;5070912;28;20542;-74
2023/03/27 09:58:39;;;;;;;12.75;7.15;;;18.30;99.90;;;;;;5081230;27;20489;-74
2023/03/27 10:01:08;;;;;;;12.20;7.28;;;19.00;99.90;;;;;;5068229;28;20462;-74
2023/03/27 10:03:51;;;;;;;12.30;7.15;;;21.80;99.90;;;;;;5053838;28;20407;-74
2023/03/27 10:06:50;;;;;;;14.52;7.57;;;24.90;99.90;;;;;;5071343;28;20541;-74
2023/03/27 10:09:25;;;;;;;12.93;7.95;;;26.70;99.90;;;;;;5088876;28;20753;-74
2023/03/27 10:12:06;;;;;;;12.70;7.93;;;24.90;99.90;;;;;;5070610;28;20412;-74
2023/03/27 10:14:44;;;;;;;12.27;7.40;;;22.40;99.90;;;;;;5067637;28;20413;-74
2023/03/27 10:17:38;;;;;;;13.18;8.00;;;21.10;99.90;;;;;;5073779;28;21198;-74
2023/03/27 10:20:14;;;;;;;12.73;7.07;;;20.20;99.90;;;;;;5068090;28;20406;-74
2023/03/27 10:22:50;;;;;;;13.15;7.60;;;19.80;99.90;;;;;;5073332;28;20412;-74
2023/03/27 10:25:25;;;;;;;13.93;7.80;;;19.50;99.90;;;;;;5084076;28;20544;-74
2023/03/27 10:27:53;;;;;;;12.63;7.95;;;20.20;99.90;;;;;;5066193;28;20408;-74
2023/03/27 10:30:34;;;;;;;12.77;7.57;;;20.30;99.90;;;;;;5066084;28;20497;-74
2023/03/27 10:33:01;;;;;;;13.45;7.57;;;20.00;99.90;;;;;;5069023;28;21077;-74
2023/03/27 10:35:38;;;;;;;13.32;7.60;;;21.80;99.90;;;;;;5065843;28;20416;-74
2023/03/27 10:38:14;;;;;;;12.18;6.85;;;21.10;99.90;;;;;;5069262;28;20478;-75
2023/03/27 10:40:47;;;;;;;12.85;7.30;;;20.30;99.90;;;;;;5071227;28;20403;-74
2023/03/27 10:43:41;;;;;;;13.20;7.35;;;19.20;99.90;;;;;;5069627;28;20463;-74
2023/03/27 10:46:37;;;;;;;11.93;6.80;;;18.60;99.90;;;;;;5088966;28;20422;-74
2023/03/27 10:49:09;;;;;;;12.23;6.70;;;18.40;99.90;;;;;;5072192;28;20415;-74
2023/03/27 10:52:14;;;;;;;11.93;6.20;;;18.40;99.90;;;;;;5071143;28;20411;-75
2023/03/27 10:54:50;;;;;;;11.73;6.18;;;18.30;99.90;;;;;;5068155;28;20785;-75
2023/03/27 10:57:28;;;;;;;15.25;6.30;;;18.00;99.90;;;;;;5078608;28;20470;-74
2023/03/27 11:00:02;;;;;;;14.20;6.40;;;17.70;99.90;;;;;;5069981;28;20411;-74
2023/03/27 11:02:44;;;;;;;11.60;6.40;;;17.90;99.90;;;;;;5106843;27;20421;-75
2023/03/27 11:05:25;;;;;;;14.53;6.70;;;18.00;99.90;;;;;;5104734;27;20413;-75
2023/03/27 11:08:28;;;;;;;14.63;6.43;;;18.00;99.90;;;;;;5071609;28;20484;-74
2023/03/27 11:11:06;;;;;;;12.55;5.40;;;18.10;99.90;;;;;;5076474;28;20417;-74
2023/03/27 11:13:43;;;;;;;13.07;6.23;;;18.10;99.90;;;;;;5068262;28;20426;-74
2023/03/27 11:16:36;;;;;;;14.20;5.85;;;18.20;99.90;;;;;;5074682;28;20412;-75
2023/03/27 11:19:33;;;;;;;10.52;5.50;;;18.00;99.90;;;;;;5077024;28;20437;-76
2023/03/27 11:22:47;;;;;;;12.27;5.35;;;17.80;99.90;;;;;;5074007;28;20437;-75
2023/03/27 11:25:28;;;;;;;13.67;5.27;;;17.70;99.90;;;;;;5074716;28;20844;-76
2023/03/27 11:28:00;;;;;;;10.30;5.30;;;17.50;99.90;;;;;;5083068;28;20415;-76
2023/03/27 11:31:17;;;;;;;11.50;5.32;;;17.50;99.90;;;;;;5075328;28;20452;-75
2023/03/27 11:34:04;;;;;;;12.60;5.93;;;17.30;99.90;;;;;;5055079;28;20418;-75
2023/03/27 11:36:45;;;;;;;12.60;5.33;;;17.20;99.90;;;;;;5073880;28;21192;-75
2023/03/27 11:39:29;;;;;;;11.73;5.70;;;17.30;99.90;;;;;;5087143;28;20906;-75
2023/03/27 11:42:17;;;;;;;14.52;6.25;;;17.10;99.90;;;;;;5083161;28;20419;-75
2023/03/27 11:44:44;;;;;;;12.53;6.03;;;16.90;99.90;;;;;;5087393;28;23581;-75
2023/03/27 11:47:29;;;;;;;12.53;5.70;;;16.60;99.90;;;;;;5054386;28;21178;-75
2023/03/27 11:50:45;;;;;;;12.30;6.25;;;16.50;99.90;;;;;;5071016;28;20500;-75
2023/03/27 11:53:36;;;;;;;13.60;6.22;;;16.40;99.90;;;;;;5071367;28;20419;-75
2023/03/27 11:56:42;;;;;;;13.18;6.00;;;16.20;99.90;;;;;;5091837;28;20901;-75
2023/03/27 11:59:34;;;;;;;12.77;5.63;;;16.10;99.90;;;;;;5051855;28;20465;-75
2023/03/27 12:02:31;;;;;;;13.02;5.72;;;15.90;99.90;;;;;;5066229;28;20427;-75
2023/03/27 12:05:47;;;;;;;12.00;5.93;;;15.80;99.90;;;;;;5071160;28;20429;-75
2023/03/27 12:09:08;;;;;;;15.07;5.70;;;15.80;99.90;;;;;;5052985;28;20416;-75
2023/03/27 12:11:44;;;;;;;14.27;6.00;;;15.80;99.90;;;;;;5072893;28;20416;-73
2023/03/27 12:14:17;;;;;;;13.03;5.70;;;15.80;99.90;;;;;;5075353;28;20398;-73
2023/03/27 12:17:38;;;;;;;12.47;5.70;;;15.90;99.90;;;;;;5078192;28;20514;-73
2023/03/27 12:20:26;;;;;;;12.55;5.65;;;15.80;99.90;;;;;;5055756;28;20474;-73
2023/03/27 12:23:02;;;;;;;12.43;5.73;;;15.70;99.90;;;;;;5079408;28;20817;-73
2023/03/27 12:25:40;;;;;;;11.63;5.80;;;15.60;99.90;;;;;;5084900;28;20410;-73
2023/03/27 12:28:25;;;;;;;10.63;5.50;;;15.50;99.90;;;;;;5081818;28;20423;-73
2023/03/27 12:31:12;;;;;;;12.60;6.10;;;15.40;99.90;;;;;;5075304;28;20480;-73
2023/03/27 12:34:04;;;;;;;11.50;6.13;;;15.40;99.90;;;;;;5079065;28;20436;-73
2023/03/27 12:36:39;;;;;;;13.68;6.30;;;15.40;99.90;;;;;;5086465;28;20503;-73
2023/03/27 12:39:21;;;;;;;12.43;5.90;;;15.30;99.90;;;;;;5073010;28;20412;-73
2023/03/27 12:41:47;;;;;;;10.98;5.63;;;15.30;99.90;;;;;;5078328;28;20409;-73
2023/03/27 12:44:20;;;;;;;14.18;5.90;;;15.20;99.90;;;;;;5079744;27;20897;-73
2023/03/27 12:47:23;;;;;;;11.50;5.20;;;15.20;99.90;;;;;;5081640;28;20418;-73
2023/03/27 12:50:02;;;;;;;11.98;5.30;;;15.20;99.90;;;;;;5078841;28;20417;-73
2023/03/27 12:52:29;;;;;;;9.93;5.07;;;15.10;99.90;;;;;;5089563;28;20422;-73
2023/03/27 12:55:12;;;;;;;12.93;5.65;;;15.10;99.90;;;;;;5075729;28;20480;-73
2023/03/27 12:57:45;;;;;;;10.60;5.30;;;15.20;99.90;;;;;;5078446;28;20429;-73
2023/03/27 13:00:25;;;;;;;11.10;5.38;;;15.20;99.90;;;;;;5091034;28;20423;-73
2023/03/27 13:03:29;;;;;;;9.48;5.18;;;15.10;99.90;;;;;;5083176;28;21027;-73
2023/03/27 13:06:38;;;;;;;10.48;5.28;;;15.20;99.90;;;;;;5076437;28;20402;-73
2023/03/27 13:09:27;;;;;;;11.60;5.28;;;15.40;99.90;;;;;;5079818;28;20417;-73
2023/03/27 13:12:10;;;;;;;9.45;4.93;;;15.50;99.90;;;;;;5078791;28;20448;-73
2023/03/27 13:15:05;;;;;;;11.43;4.95;;;15.60;99.90;;;;;;5077244;28;20411;-73
2023/03/27 13:17:45;;;;;;;12.75;5.00;;;15.60;99.90;;;;;;5096109;28;20636;-73
2023/03/27 13:20:43;;;;;;;12.75;5.30;;;15.60;99.90;;;;;;5079264;28;20407;-73
2023/03/27 13:23:41;;;;;;;9.00;4.63;;;15.60;99.90;;;;;;5080122;28;20469;-73